28 maggio 2022

Tempo Codice Tempo metereologico Temp. Vista Base nuvolosa Vento METAR/SPECI
6:30 am
V
52 °F 6¼ mi+ - Var 000° 0 kt METAR LFLC 280430Z AUTO 00000KT CAVOK 11/10 Q1021 NOSIG
6:00 am
V
54 °F 6¼ mi+ - Var 000° 0 kt METAR LFLC 280400Z AUTO 00000KT CAVOK 12/10 Q1021 NOSIG
5:30 am
V
55 °F 6¼ mi+ - 060° 060° 1 kt METAR LFLC 280330Z AUTO 06001KT CAVOK 13/10 Q1021 NOSIG
5:00 am
V
55 °F 6¼ mi+ - 360° 360° 2 kt METAR LFLC 280300Z AUTO 36002KT 9999 SCT020 13/10 Q1021 NOSIG
4:30 am
V
55 °F 6¼ mi+ - 350° 350° 3 kt METAR LFLC 280230Z AUTO 35003KT 310V020 9999 FEW025 SCT045 13/10 Q1022 NOSIG
4:00 am
M
57 °F 6¼ mi+ 2.500 ft 340° 340° 4 kt METAR LFLC 280200Z AUTO 34004KT 9999 BKN025 BKN032 OVC044 14/11 Q1022 NOSIG
3:30 am
M
57 °F 6¼ mi+ 2.600 ft 340° 340° 4 kt METAR LFLC 280130Z AUTO 34004KT 310V010 9999 BKN026 OVC032 14/11 Q1022 NOSIG
3:00 am
M
59 °F 6¼ mi+ 2.500 ft 350° 350° 5 kt METAR LFLC 280100Z AUTO 35005KT 9999 BKN025 OVC033 15/11 Q1023 NOSIG
2:30 am
M
59 °F 6¼ mi+ 2.600 ft 350° 350° 5 kt METAR LFLC 280030Z AUTO 35005KT 9999 BKN026 OVC032 15/11 Q1023 NOSIG
2:00 am
M
59 °F 6¼ mi+ 2.700 ft 360° 360° 4 kt METAR LFLC 280000Z AUTO 36004KT 330V030 9999 OVC027 15/11 Q1023 NOSIG
1:30 am
V
59 °F 6¼ mi+ 3.000 ft 020° 020° 4 kt METAR LFLC 272330Z AUTO 02004KT 9999 OVC030 15/11 Q1024 NOSIG
1:00 am
V
59 °F 6¼ mi+ 3.200 ft 040° 040° 4 kt METAR LFLC 272300Z AUTO 04004KT 9999 OVC032 15/11 Q1024 NOSIG
12:30 am
V
59 °F 6¼ mi+ 3.200 ft 040° 040° 4 kt METAR LFLC 272230Z AUTO 04004KT 9999 OVC032 15/11 Q1024 NOSIG
12:00 am
V
61 °F 6¼ mi+ 3.100 ft 020° 020° 6 kt METAR LFLC 272200Z AUTO 02006KT 9999 OVC031 16/11 Q1024 NOSIG

27 maggio 2022

Tempo Codice Tempo metereologico Temp. Vista Base nuvolosa Vento METAR/SPECI
11:30 pm
V
61 °F 6¼ mi+ 3.300 ft 020° 020° 5 kt METAR LFLC 272130Z AUTO 02005KT 340V050 9999 SCT027 OVC033 16/11 Q1024 NOSIG
11:00 pm
V
61 °F 6¼ mi+ 3.400 ft 020° 020° 7 kt METAR LFLC 272100Z AUTO 02007KT 350V050 9999 OVC034 16/11 Q1024 NOSIG
10:30 pm
V
61 °F 6¼ mi+ 3.700 ft 020° 020° 7 kt METAR LFLC 272030Z AUTO 02007KT 9999 OVC037 16/11 Q1024 NOSIG
10:00 pm
V
63 °F 6¼ mi+ 3.900 ft 010° 010° 7 kt METAR LFLC 272000Z AUTO 01007KT 9999 BKN039 17/11 Q1024 NOSIG
9:30 pm
V
63 °F 6¼ mi+ - 020° 020° 7 kt METAR LFLC 271930Z AUTO 02007KT CAVOK 17/11 Q1023 NOSIG
9:00 pm
V
64 °F 6¼ mi+ - 020° 020° 10 kt METAR LFLC 271900Z AUTO 02010KT CAVOK 18/11 Q1023 NOSIG
8:30 pm
V
68 °F 6¼ mi+ - 020° 020° 11 kt METAR LFLC 271830Z AUTO 02011KT CAVOK 20/11 Q1023 NOSIG
8:00 pm
V
70 °F 6¼ mi+ - 010° 010° 10 kt METAR LFLC 271800Z AUTO 01010KT 340V040 CAVOK 21/11 Q1023 NOSIG
7:30 pm
V
72 °F 6¼ mi+ - 010° 010° 11 kt METAR LFLC 271730Z AUTO 01011KT CAVOK 22/11 Q1023 NOSIG
7:00 pm
V
72 °F 6¼ mi+ - 360° 360° 12 kt METAR LFLC 271700Z AUTO 36012KT CAVOK 22/11 Q1023 NOSIG
6:30 pm
V
73 °F 6¼ mi+ - 020° 020° 10 kt METAR LFLC 271630Z AUTO 02010KT CAVOK 23/11 Q1023 NOSIG
6:00 pm
V
73 °F 6¼ mi+ - 020° 020° 10 kt METAR LFLC 271600Z AUTO 02010KT 350V060 CAVOK 23/11 Q1023 NOSIG
5:30 pm
V
73 °F 6¼ mi+ - 020° 020° 8 kt METAR LFLC 271530Z AUTO 02008KT 330V060 CAVOK 23/11 Q1023 NOSIG
5:00 pm
V
73 °F 6¼ mi+ - 020° 020° 8 kt METAR LFLC 271500Z AUTO 02008KT 350V060 CAVOK 23/12 Q1023 NOSIG
4:30 pm
V
73 °F 6¼ mi+ - 360° 360° 9 kt METAR LFLC 271430Z AUTO 36009KT 330V050 CAVOK 23/12 Q1024 NOSIG
4:00 pm
V
72 °F 6¼ mi+ - 350° 350° 7 kt METAR LFLC 271400Z AUTO 35007KT 310V040 9999 FEW040 22/11 Q1024 NOSIG
3:30 pm
V
72 °F 6¼ mi+ - 020° 020° 6 kt METAR LFLC 271330Z AUTO 02006KT 310V120 9999 FEW039 22/12 Q1024 NOSIG
3:00 pm
V
72 °F 6¼ mi+ 3.600 ft 010° 010° 7 kt METAR LFLC 271300Z AUTO 01007KT 310V110 9999 BKN036 22/12 Q1025 NOSIG
2:30 pm
V
70 °F 6¼ mi+ 3.500 ft 030° 030° 7 kt METAR LFLC 271230Z AUTO 03007KT 320V080 9999 BKN035 BKN049 21/11 Q1025 NOSIG
2:00 pm
V
68 °F 6¼ mi+ 3.300 ft 010° 010° 8 kt METAR LFLC 271200Z AUTO 01008KT 340V040 9999 OVC033 20/12 Q1025 NOSIG
1:30 pm
V
66 °F 6¼ mi+ 3.400 ft 360° 360° 5 kt METAR LFLC 271130Z AUTO 36005KT 320V100 9999 OVC034 19/12 Q1026 NOSIG
1:00 pm
V
64 °F 6¼ mi+ 3.200 ft 360° 360° 6 kt METAR LFLC 271100Z AUTO 36006KT 300V030 9999 FEW024 OVC032 18/12 Q1026 NOSIG
12:30 pm
V
64 °F 6¼ mi+ 3.000 ft 030° 030° 5 kt METAR LFLC 271030Z AUTO 03005KT 9999 OVC030 18/13 Q1026 NOSIG
12:00 pm
V
64 °F 6¼ mi+ 3.200 ft 010° 010° 6 kt METAR LFLC 271000Z AUTO 01006KT 340V060 9999 FEW023 OVC032 18/13 Q1026 NOSIG
11:30 am
V
64 °F 6¼ mi+ 3.400 ft 010° 010° 5 kt METAR LFLC 270930Z AUTO 01005KT 330V050 9999 FEW020 OVC034 18/13 Q1026 NOSIG
11:00 am
V
64 °F 6¼ mi+ 3.500 ft 010° 010° 6 kt METAR LFLC 270900Z AUTO 01006KT 330V040 9999 SCT018 OVC035 18/13 Q1026 NOSIG
10:30 am
M
63 °F 6¼ mi+ 1.700 ft 360° 360° 6 kt METAR LFLC 270830Z AUTO 36006KT 340V040 9999 BKN017 OVC034 17/13 Q1026 NOSIG
10:00 am
M
61 °F 6¼ mi+ 1.700 ft 010° 010° 7 kt METAR LFLC 270800Z AUTO 01007KT 310V060 9999 BKN017 OVC035 16/12 Q1026 NOSIG
9:30 am
M
61 °F 6¼ mi+ 1.700 ft 010° 010° 5 kt METAR LFLC 270730Z AUTO 01005KT 340V040 9999 OVC017 16/12 Q1026 NOSIG
9:00 am
M
61 °F 6¼ mi+ 1.800 ft 010° 010° 5 kt METAR LFLC 270700Z AUTO 01005KT 340V040 9999 BKN018 OVC034 16/12 Q1026 NOSIG
8:30 am
M
59 °F 6¼ mi+ 1.800 ft Var Var 2 kt METAR LFLC 270630Z AUTO VRB02KT 9999 OVC018 15/12 Q1026 NOSIG
8:00 am
M
59 °F 6¼ mi+ 1.800 ft 360° 360° 2 kt METAR LFLC 270600Z AUTO 36002KT 9999 BKN018 OVC035 15/12 Q1026 NOSIG
7:30 am
V
59 °F 6¼ mi+ 3.500 ft 350° 350° 2 kt METAR LFLC 270530Z AUTO 35002KT 9999 FEW019 OVC035 15/12 Q1026 NOSIG
7:00 am
V
57 °F 6¼ mi+ 3.600 ft Var 000° 0 kt METAR LFLC 270500Z AUTO 00000KT 9999 OVC036 14/11 Q1026 NOSIG
6:30 am
V
57 °F 6¼ mi+ 3.600 ft Var 000° 0 kt METAR LFLC 270430Z AUTO 00000KT 9999 OVC036 14/11 Q1026 NOSIG
6:00 am
V
57 °F 6¼ mi+ 3.700 ft Var Var 2 kt METAR LFLC 270400Z AUTO VRB02KT 9999 OVC037 14/11 Q1025 NOSIG
5:30 am
V
55 °F 6¼ mi+ 3.800 ft Var 000° 0 kt METAR LFLC 270330Z AUTO 00000KT 9999 OVC038 13/11 Q1025 NOSIG
5:00 am
V
55 °F 6¼ mi+ 3.900 ft 160° 160° 2 kt METAR LFLC 270300Z AUTO 16002KT 9999 OVC039 13/11 Q1025 NOSIG
4:30 am
V
55 °F 6¼ mi+ 4.100 ft 160° 160° 1 kt METAR LFLC 270230Z AUTO 16001KT 9999 BKN041 13/10 Q1025 NOSIG
4:00 am
V
57 °F 6¼ mi+ 4.400 ft Var Var 2 kt METAR LFLC 270200Z AUTO VRB02KT 9999 FEW038 BKN044 14/11 Q1025 NOSIG
3:30 am
V
57 °F 6¼ mi+ 4.400 ft 100° 100° 3 kt METAR LFLC 270130Z AUTO 10003KT 010V120 9999 OVC044 14/11 Q1026 NOSIG
3:00 am
V
57 °F 6¼ mi+ 4.200 ft 100° 100° 3 kt METAR LFLC 270100Z AUTO 10003KT 9999 OVC042 14/11 Q1026 NOSIG
2:30 am
V
57 °F 6¼ mi+ 4.300 ft 080° 080° 2 kt METAR LFLC 270030Z AUTO 08002KT 9999 OVC043 14/10 Q1026 NOSIG
2:00 am
V
57 °F 6¼ mi+ 4.300 ft Var 000° 0 kt METAR LFLC 270000Z AUTO 00000KT 9999 BKN043 14/10 Q1026 NOSIG
1:30 am
V
59 °F 6¼ mi+ 4.400 ft 130° 130° 1 kt METAR LFLC 262330Z AUTO 13001KT 9999 BKN044 15/10 Q1026 NOSIG
1:00 am
V
59 °F 6¼ mi+ 4.400 ft Var 000° 0 kt METAR LFLC 262300Z AUTO 00000KT 9999 OVC044 15/11 Q1027 NOSIG
12:30 am
V
59 °F 6¼ mi+ 4.400 ft Var 000° 0 kt METAR LFLC 262230Z AUTO 00000KT 9999 OVC044 15/10 Q1027 NOSIG
12:00 am
V
59 °F 6¼ mi+ 4.400 ft Var 000° 0 kt METAR LFLC 262200Z AUTO 00000KT 9999 OVC044 15/10 Q1027 NOSIG

26 maggio 2022

Tempo Codice Tempo metereologico Temp. Vista Base nuvolosa Vento METAR/SPECI
11:30 pm
V
57 °F 6¼ mi+ 4.400 ft Var Var 3 kt METAR LFLC 262130Z AUTO VRB03KT 9999 BKN044 14/10 Q1027 NOSIG
11:00 pm
V
59 °F 6¼ mi+ 4.500 ft 310° 310° 3 kt METAR LFLC 262100Z AUTO 31003KT 9999 BKN045 15/10 Q1027 NOSIG
10:30 pm
V
59 °F 6¼ mi+ - 310° 310° 4 kt METAR LFLC 262030Z AUTO 31004KT 9999 FEW040 SCT046 15/10 Q1026 NOSIG
10:00 pm
V
59 °F 6¼ mi+ - 340° 340° 3 kt METAR LFLC 262000Z AUTO 34003KT 9999 FEW039 15/10 Q1026 NOSIG
9:30 pm
V
61 °F 6¼ mi+ - 360° 360° 2 kt METAR LFLC 261930Z AUTO 36002KT CAVOK 16/10 Q1026 NOSIG
9:00 pm
V
63 °F 6¼ mi+ - 350° 350° 3 kt METAR LFLC 261900Z AUTO 35003KT CAVOK 17/10 Q1025 NOSIG
8:30 pm
V
64 °F 6¼ mi+ - 360° 360° 4 kt METAR LFLC 261830Z AUTO 36004KT 330V030 9999 FEW042 18/10 Q1025 NOSIG
8:00 pm
V
66 °F 6¼ mi+ - 020° 020° 6 kt METAR LFLC 261800Z AUTO 02006KT 9999 SCT043 19/11 Q1025 NOSIG
7:30 pm
V
66 °F 6¼ mi+ 4.800 ft 350° 350° 8 kt METAR LFLC 261730Z AUTO 35008KT 9999 BKN048 19/10 Q1025 NOSIG
7:00 pm
V
66 °F 6¼ mi+ 4.800 ft 360° 360° 9 kt METAR LFLC 261700Z AUTO 36009KT 330V030 9999 FEW040 BKN048 19/11 Q1026 NOSIG
6:30 pm
V
66 °F 6¼ mi+ 5.000 ft 360° 360° 8 kt METAR LFLC 261630Z AUTO 36008KT 330V030 9999 BKN050 19/11 Q1026 NOSIG
6:00 pm
V
66 °F 6¼ mi+ 4.900 ft 350° 350° 9 kt METAR LFLC 261600Z AUTO 35009KT 9999 FEW039 OVC049 19/10 Q1026 NOSIG
5:30 pm
V
66 °F 6¼ mi+ 5.000 ft 360° 360° 9 kt METAR LFLC 261530Z AUTO 36009KT 9999 SCT043 OVC050 19/10 Q1026 NOSIG
5:00 pm
V
66 °F 6¼ mi+ 5.000 ft 360° 360° 7 kt METAR LFLC 261500Z AUTO 36007KT 320V040 9999 SCT041 OVC050 19/10 Q1026 NOSIG
4:30 pm
V
66 °F 6¼ mi+ 5.000 ft 320° 320° 9 kt METAR LFLC 261430Z AUTO 32009KT 290V360 9999 SCT042 BKN050 19/10 Q1026 NOSIG
4:00 pm
V
68 °F 6¼ mi+ 5.200 ft 360° 360° 9 kt METAR LFLC 261400Z AUTO 36009KT 330V050 9999 FEW040 BKN052 20/10 Q1026 NOSIG
3:30 pm
V
66 °F 6¼ mi+ 5.000 ft 340° 340° 8 kt METAR LFLC 261330Z AUTO 34008KT 280V020 9999 FEW039 BKN050 19/09 Q1026 NOSIG
3:00 pm
V
68 °F 6¼ mi+ 5.200 ft 350° 350° 8 kt METAR LFLC 261300Z AUTO 35008KT 300V040 9999 FEW036 BKN052 20/09 Q1027 NOSIG
2:30 pm
V
64 °F 6¼ mi+ 4.700 ft 350° 350° 5 kt METAR LFLC 261230Z AUTO 35005KT 250V020 9999 FEW036 OVC047 18/09 Q1027 NOSIG
2:00 pm
V
64 °F 6¼ mi+ 4.200 ft 350° 350° 5 kt METAR LFLC 261200Z AUTO 35005KT 320V030 9999 FEW031 BKN042 OVC050 18/09 Q1027 NOSIG
1:30 pm
V
63 °F 6¼ mi+ 4.600 ft Var Var 4 kt METAR LFLC 261130Z AUTO VRB04KT 9999 SCT035 OVC046 17/10 Q1027 NOSIG
1:00 pm
V
61 °F 6¼ mi+ 3.700 ft 030° 030° 6 kt METAR LFLC 261100Z AUTO 03006KT 350V060 9999 FEW029 BKN037 OVC046 16/10 Q1027 NOSIG
12:30 pm
V
61 °F 6¼ mi+ 3.400 ft 040° 040° 4 kt METAR LFLC 261030Z AUTO 04004KT 330V090 9999 SCT029 BKN034 OVC047 16/10 Q1027 NOSIG
12:00 pm
V
61 °F 6¼ mi+ 4.500 ft Var Var 3 kt METAR LFLC 261000Z AUTO VRB03KT 9999 OVC045 16/10 Q1027 NOSIG
11:30 am
V
59 °F 6¼ mi+ 4.200 ft Var Var 3 kt METAR LFLC 260930Z AUTO VRB03KT 9999 OVC042 15/11 Q1027 NOSIG
11:00 am
V
59 °F 6¼ mi+ 4.000 ft 070° 070° 4 kt METAR LFLC 260900Z AUTO 07004KT 030V130 9999 OVC040 15/10 Q1027 NOSIG
10:30 am
V
57 °F 6¼ mi+ 4.200 ft Var Var 2 kt METAR LFLC 260830Z AUTO VRB02KT 9999 OVC042 14/10 Q1027 NOSIG
10:00 am
V
57 °F 6¼ mi+ 4.100 ft 040° 040° 3 kt METAR LFLC 260800Z AUTO 04003KT 9999 OVC041 14/09 Q1027 NOSIG
9:30 am
V
57 °F 6¼ mi+ 4.000 ft Var Var 2 kt METAR LFLC 260730Z AUTO VRB02KT 9999 OVC040 14/09 Q1027 NOSIG
9:00 am
V
55 °F 6¼ mi+ 4.300 ft Var Var 2 kt METAR LFLC 260700Z AUTO VRB02KT 9999 OVC043 13/09 Q1026 NOSIG
8:30 am
V
55 °F 6¼ mi+ 4.600 ft Var Var 2 kt METAR LFLC 260630Z AUTO VRB02KT 9999 OVC046 13/09 Q1026 NOSIG
8:00 am
V
54 °F 6¼ mi+ 4.900 ft Var Var 3 kt METAR LFLC 260600Z AUTO VRB03KT 9999 SCT040 BKN049 12/09 Q1026 NOSIG
7:30 am
V
52 °F 6¼ mi+ 3.500 ft Var Var 2 kt METAR LFLC 260530Z AUTO VRB02KT 9999 BKN035 OVC052 11/10 Q1026 NOSIG
7:00 am
V
50 °F 6¼ mi+ 3.400 ft 070° 070° 2 kt METAR LFLC 260500Z AUTO 07002KT 9999 BKN034 OVC056 10/08 Q1026 NOSIG
6:30 am
V
48 °F 6¼ mi+ 5.400 ft Var Var 2 kt METAR LFLC 260430Z AUTO VRB02KT 9999 SCT033 BKN054 09/08 Q1025 NOSIG
6:00 am
V
46 °F 6¼ mi+ - Var Var 2 kt METAR LFLC 260400Z AUTO VRB02KT CAVOK 08/06 Q1025 NOSIG
5:30 am
V
46 °F 6¼ mi+ - 100° 100° 3 kt METAR LFLC 260330Z AUTO 10003KT CAVOK 08/06 Q1025 NOSIG
5:00 am
V
48 °F 6¼ mi+ - Var Var 3 kt METAR LFLC 260300Z AUTO VRB03KT CAVOK 09/06 Q1025 NOSIG
4:30 am
V
48 °F 6¼ mi+ - 110° 110° 2 kt METAR LFLC 260230Z AUTO 11002KT CAVOK 09/06 Q1025 NOSIG
4:00 am
V
50 °F 6¼ mi+ - 140° 140° 1 kt METAR LFLC 260200Z AUTO 14001KT CAVOK 10/06 Q1025 NOSIG
3:30 am
V
55 °F 6¼ mi+ - 120° 120° 2 kt METAR LFLC 260130Z AUTO 12002KT CAVOK 13/07 Q1025 NOSIG
3:00 am
V
52 °F 6¼ mi+ - Var Var 1 kt METAR LFLC 260100Z AUTO VRB01KT CAVOK 11/07 Q1025 NOSIG
2:30 am
V
50 °F 6¼ mi+ - Var Var 1 kt METAR LFLC 260030Z AUTO VRB01KT CAVOK 10/06 Q1025 NOSIG
2:00 am
V
50 °F 6¼ mi+ - 120° 120° 2 kt METAR LFLC 260000Z AUTO 12002KT CAVOK 10/07 Q1025 NOSIG
Dati più vecchi

Scarica la nostra applicazione

Facile accesso a tutte le previsioni dell'aviazione sul tuo cellulare e tablet.
Con molte caratteristiche non disponibili sul sito web, come il supporto offline e una lista personale di aeroporti.

Noi e le terze parti seguiamo il tuo comportamento in internet sul nostro sito web con i cookie. Se continui, riteniamo che tu sia d'accordo con la nostra politica sui cookie. Per saperne di più